createdAt,value
2019-05-22T00:00:35.774Z,1012.64
2019-05-22T00:01:35.769Z,1012.68
2019-05-22T00:02:35.766Z,1012.68
2019-05-22T00:03:35.761Z,1012.67
2019-05-22T00:04:35.757Z,1012.69
2019-05-22T00:05:35.755Z,1012.64
2019-05-22T00:06:35.745Z,1012.69
2019-05-22T00:07:35.740Z,1012.63
2019-05-22T00:08:35.728Z,1012.69
2019-05-22T00:09:35.724Z,1012.66
2019-05-22T00:10:35.745Z,1012.69
2019-05-22T00:11:35.756Z,1012.67
2019-05-22T00:12:46.129Z,1012.64
2019-05-22T00:13:35.699Z,1012.63
2019-05-22T00:14:35.690Z,1012.65
2019-05-22T00:15:38.600Z,1012.62
2019-05-22T00:16:35.681Z,1012.66
2019-05-22T00:17:35.677Z,1012.66
2019-05-22T00:18:35.685Z,1012.64
2019-05-22T00:19:35.669Z,1012.69
2019-05-22T00:20:35.655Z,1012.68
2019-05-22T00:21:35.649Z,1012.69
2019-05-22T00:22:35.645Z,1012.68
2019-05-22T00:23:35.635Z,1012.68
2019-05-22T00:24:35.637Z,1012.69
2019-05-22T00:25:35.630Z,1012.72
2019-05-22T00:26:35.623Z,1012.74
2019-05-22T00:27:35.613Z,1012.71
2019-05-22T00:28:35.607Z,1012.71
2019-05-22T00:29:35.597Z,1012.72
2019-05-22T00:30:35.602Z,1012.75
2019-05-22T00:31:35.589Z,1012.76
2019-05-22T00:32:35.581Z,1012.78
2019-05-22T00:33:36.408Z,1012.73
2019-05-22T00:34:35.574Z,1012.76
2019-05-22T00:35:35.603Z,1012.75
2019-05-22T00:36:35.561Z,1012.75
2019-05-22T00:37:35.555Z,1012.72
2019-05-22T00:38:35.547Z,1012.74
2019-05-22T00:39:35.537Z,1012.73
2019-05-22T00:40:35.530Z,1012.74
2019-05-22T00:41:35.523Z,1012.75
2019-05-22T00:42:35.520Z,1012.81
2019-05-22T00:43:35.512Z,1012.73
2019-05-22T00:44:35.509Z,1012.76
2019-05-22T00:45:35.504Z,1012.83
2019-05-22T00:46:35.497Z,1012.77
2019-05-22T00:47:35.488Z,1012.80
2019-05-22T00:48:35.488Z,1012.85
2019-05-22T00:49:35.485Z,1012.86
2019-05-22T00:50:35.472Z,1012.88
2019-05-22T00:51:35.527Z,1012.87
2019-05-22T00:52:35.455Z,1012.85
2019-05-22T00:53:35.448Z,1012.87
2019-05-22T00:54:35.442Z,1012.86
2019-05-22T00:55:35.438Z,1012.79
2019-05-22T00:56:35.436Z,1012.81
2019-05-22T00:57:35.429Z,1012.81
2019-05-22T00:58:35.425Z,1012.86
2019-05-22T00:59:35.417Z,1012.81
2019-05-22T01:00:35.419Z,1012.85
2019-05-22T01:01:35.402Z,1012.85
2019-05-22T01:02:35.399Z,1012.82
2019-05-22T01:03:35.394Z,1012.86
2019-05-22T01:04:35.395Z,1012.87
2019-05-22T01:05:35.384Z,1012.85
2019-05-22T01:06:35.370Z,1012.88
2019-05-22T01:07:35.415Z,1012.91
2019-05-22T01:08:35.359Z,1012.89
2019-05-22T01:09:35.362Z,1012.91
2019-05-22T01:10:35.350Z,1012.91
2019-05-22T01:11:35.341Z,1012.98
2019-05-22T01:12:35.331Z,1012.97
2019-05-22T01:13:35.325Z,1012.99
2019-05-22T01:14:42.779Z,1012.96
2019-05-22T01:15:35.314Z,1012.96
2019-05-22T01:16:35.313Z,1012.95
2019-05-22T01:17:35.307Z,1012.99
2019-05-22T01:18:35.299Z,1012.98
2019-05-22T01:19:35.292Z,1013.00
2019-05-22T01:20:35.291Z,1013.04
2019-05-22T01:21:35.286Z,1013.00
2019-05-22T01:22:35.280Z,1012.99
2019-05-22T01:23:35.266Z,1013.04
2019-05-22T01:24:35.257Z,1012.99
2019-05-22T01:25:35.251Z,1012.99
2019-05-22T01:26:35.244Z,1013.00
2019-05-22T01:27:35.236Z,1013.04
2019-05-22T01:28:35.236Z,1013.07
2019-05-22T01:29:35.236Z,1013.01
2019-05-22T01:30:35.226Z,1013.02
2019-05-22T01:31:35.220Z,1013.07
2019-05-22T01:32:35.211Z,1013.05
2019-05-22T01:33:35.203Z,1013.04
2019-05-22T01:34:35.203Z,1013.09
2019-05-22T01:35:35.197Z,1013.11
2019-05-22T01:36:35.190Z,1013.07
2019-05-22T01:37:35.178Z,1013.11
2019-05-22T01:38:35.176Z,1013.10
2019-05-22T01:39:35.165Z,1013.08
2019-05-22T01:40:35.160Z,1013.13
2019-05-22T01:41:35.154Z,1013.13
2019-05-22T01:42:35.152Z,1013.16
2019-05-22T01:43:35.144Z,1013.14
2019-05-22T01:44:35.133Z,1013.13
2019-05-22T01:45:35.127Z,1013.18
2019-05-22T01:46:35.119Z,1013.17
2019-05-22T01:47:35.111Z,1013.21
2019-05-22T01:48:35.111Z,1013.19
2019-05-22T01:49:35.104Z,1013.18
2019-05-22T01:50:35.094Z,1013.22
2019-05-22T01:51:35.089Z,1013.21
2019-05-22T01:52:35.084Z,1013.18
2019-05-22T01:53:35.079Z,1013.21
2019-05-22T01:54:35.076Z,1013.19
2019-05-22T01:55:35.069Z,1013.16
2019-05-22T01:56:35.060Z,1013.14
2019-05-22T01:57:35.051Z,1013.20
2019-05-22T01:58:35.047Z,1013.19
2019-05-22T01:59:35.038Z,1013.18
2019-05-22T02:00:35.045Z,1013.18
2019-05-22T02:01:35.031Z,1013.18
2019-05-22T02:02:35.022Z,1013.18
2019-05-22T02:03:35.015Z,1013.18
2019-05-22T02:04:35.005Z,1013.18
2019-05-22T02:05:35.011Z,1013.18
2019-05-22T02:06:35.005Z,1013.20
2019-05-22T02:07:34.990Z,1013.18
2019-05-22T02:08:34.978Z,1013.20
2019-05-22T02:09:34.973Z,1013.21
2019-05-22T02:10:35.029Z,1013.20
2019-05-22T02:11:34.964Z,1013.22
2019-05-22T02:12:34.961Z,1013.20
2019-05-22T02:13:34.956Z,1013.23
2019-05-22T02:14:34.949Z,1013.22
2019-05-22T02:15:34.940Z,1013.22
2019-05-22T02:16:34.930Z,1013.20
2019-05-22T02:17:34.924Z,1013.20
2019-05-22T02:18:34.918Z,1013.23
2019-05-22T02:19:34.910Z,1013.22
2019-05-22T02:20:34.913Z,1013.18
2019-05-22T02:21:34.907Z,1013.25
2019-05-22T02:22:34.890Z,1013.21
2019-05-22T02:23:34.884Z,1013.25
2019-05-22T02:24:34.881Z,1013.22
2019-05-22T02:25:34.876Z,1013.20
2019-05-22T02:26:34.872Z,1013.23
2019-05-22T02:27:34.864Z,1013.24
2019-05-22T02:28:34.857Z,1013.20
2019-05-22T02:29:34.850Z,1013.23
2019-05-22T02:30:34.842Z,1013.23
2019-05-22T02:31:34.836Z,1013.26
2019-05-22T02:32:34.834Z,1013.23
2019-05-22T02:33:34.829Z,1013.28
2019-05-22T02:34:34.821Z,1013.33
2019-05-22T02:35:34.813Z,1013.32
2019-05-22T02:36:34.802Z,1013.37
2019-05-22T02:37:34.795Z,1013.35
2019-05-22T02:38:34.793Z,1013.36
2019-05-22T02:39:34.787Z,1013.37
2019-05-22T02:40:34.775Z,1013.37
2019-05-22T02:41:34.769Z,1013.39
2019-05-22T02:42:34.781Z,1013.41
2019-05-22T02:43:34.759Z,1013.42
2019-05-22T02:44:34.759Z,1013.41
2019-05-22T02:45:34.748Z,1013.38
2019-05-22T02:46:34.741Z,1013.45
2019-05-22T02:47:34.734Z,1013.44
2019-05-22T02:48:34.723Z,1013.44
2019-05-22T02:49:34.715Z,1013.48
2019-05-22T02:50:34.712Z,1013.52
2019-05-22T02:51:34.706Z,1013.50
2019-05-22T02:52:34.705Z,1013.49
2019-05-22T02:53:34.698Z,1013.53
2019-05-22T02:54:34.688Z,1013.52
2019-05-22T02:55:34.682Z,1013.50
2019-05-22T02:56:34.678Z,1013.53
2019-05-22T02:57:34.672Z,1013.51
2019-05-22T02:58:34.674Z,1013.53
2019-05-22T02:59:34.663Z,1013.61
2019-05-22T03:00:34.646Z,1013.55
2019-05-22T03:01:34.638Z,1013.56
2019-05-22T03:02:34.633Z,1013.55
2019-05-22T03:03:34.626Z,1013.62
2019-05-22T03:04:34.627Z,1013.56
2019-05-22T03:05:34.623Z,1013.54
2019-05-22T03:06:34.613Z,1013.53
2019-05-22T03:07:34.607Z,1013.55
2019-05-22T03:08:34.598Z,1013.60
2019-05-22T03:09:34.592Z,1013.61
2019-05-22T03:10:34.588Z,1013.58
2019-05-22T03:11:35.352Z,1013.70
2019-05-22T03:12:34.606Z,1013.63
2019-05-22T03:13:34.569Z,1013.72
2019-05-22T03:14:34.557Z,1013.74
2019-05-22T03:15:34.550Z,1013.71
2019-05-22T03:16:34.547Z,1013.68
2019-05-22T03:17:34.542Z,1013.72
2019-05-22T03:18:34.534Z,1013.74
2019-05-22T03:19:34.527Z,1013.76
2019-05-22T03:20:34.518Z,1013.73
2019-05-22T03:21:34.511Z,1013.76
2019-05-22T03:22:34.506Z,1013.70
2019-05-22T03:23:34.504Z,1013.76
2019-05-22T03:24:34.497Z,1013.72
2019-05-22T03:25:34.492Z,1013.76
2019-05-22T03:26:34.480Z,1013.75
2019-05-22T03:27:34.474Z,1013.74
2019-05-22T03:28:34.487Z,1013.79
2019-05-22T03:29:34.465Z,1013.77
2019-05-22T03:30:34.459Z,1013.75
2019-05-22T03:31:34.449Z,1013.81
2019-05-22T03:32:34.440Z,1013.81
2019-05-22T03:33:34.438Z,1013.83
2019-05-22T03:34:34.427Z,1013.87
2019-05-22T03:35:34.432Z,1013.84
2019-05-22T03:36:34.416Z,1013.88
2019-05-22T03:37:34.413Z,1013.87
2019-05-22T03:38:34.418Z,1013.84
2019-05-22T03:39:34.398Z,1013.86
2019-05-22T03:40:34.391Z,1013.82
2019-05-22T03:41:34.382Z,1013.85
2019-05-22T03:42:34.380Z,1013.84
2019-05-22T03:43:34.372Z,1013.83
2019-05-22T03:44:34.361Z,1013.83
2019-05-22T03:45:34.357Z,1013.81
2019-05-22T03:46:34.347Z,1013.88
2019-05-22T03:47:34.344Z,1013.91
2019-05-22T03:48:34.340Z,1013.87
2019-05-22T03:49:34.333Z,1013.87
2019-05-22T03:50:34.323Z,1013.95
2019-05-22T03:51:34.318Z,1013.93
2019-05-22T03:52:34.313Z,1013.87
2019-05-22T03:53:34.308Z,1013.86
2019-05-22T03:54:34.299Z,1013.86
2019-05-22T03:55:34.292Z,1013.82
2019-05-22T03:56:34.284Z,1013.81
2019-05-22T03:57:34.277Z,1013.85
2019-05-22T03:58:34.367Z,1013.84
2019-05-22T03:59:34.265Z,1013.82
2019-05-22T04:00:34.256Z,1013.82
2019-05-22T04:01:34.248Z,1013.80
2019-05-22T04:02:34.247Z,1013.83
2019-05-22T04:03:34.238Z,1013.83
2019-05-22T04:04:34.235Z,1013.87
2019-05-22T04:05:34.237Z,1013.82
2019-05-22T04:06:34.223Z,1013.84
2019-05-22T04:07:34.215Z,1013.84
2019-05-22T04:08:34.207Z,1013.90
2019-05-22T04:09:34.212Z,1013.93
2019-05-22T04:10:34.190Z,1013.89
2019-05-22T04:11:34.185Z,1013.89
2019-05-22T04:12:34.181Z,1013.94
2019-05-22T04:13:34.175Z,1013.93
2019-05-22T04:14:34.165Z,1013.92
2019-05-22T04:15:34.156Z,1013.94
2019-05-22T04:16:34.155Z,1014.03
2019-05-22T04:17:34.150Z,1013.96
2019-05-22T04:18:34.145Z,1013.98
2019-05-22T04:19:48.569Z,1013.97
2019-05-22T04:20:34.128Z,1013.94
2019-05-22T04:21:34.122Z,1014.02
2019-05-22T04:22:34.116Z,1014.00
2019-05-22T04:23:34.110Z,1014.03
2019-05-22T04:24:34.106Z,1014.06
2019-05-22T04:25:34.100Z,1014.05
2019-05-22T04:26:34.090Z,1014.09
2019-05-22T04:27:34.087Z,1014.04
2019-05-22T04:28:34.073Z,1014.13
2019-05-22T04:29:34.071Z,1014.11
2019-05-22T04:30:34.067Z,1014.12
2019-05-22T04:31:34.057Z,1014.15
2019-05-22T04:32:34.048Z,1014.16
2019-05-22T04:33:34.049Z,1014.17
2019-05-22T04:34:34.037Z,1014.19
2019-05-22T04:35:34.034Z,1014.22
2019-05-22T04:36:34.027Z,1014.18
2019-05-22T04:37:34.026Z,1014.21
2019-05-22T04:38:34.016Z,1014.18
2019-05-22T04:39:34.009Z,1014.21
2019-05-22T04:40:33.999Z,1014.27
2019-05-22T04:41:33.999Z,1014.19
2019-05-22T04:42:33.986Z,1014.24
2019-05-22T04:43:34.062Z,1014.25
2019-05-22T04:44:33.975Z,1014.29
2019-05-22T04:45:33.969Z,1014.30
2019-05-22T04:46:33.957Z,1014.31
2019-05-22T04:47:33.956Z,1014.31
2019-05-22T04:48:33.950Z,1014.28
2019-05-22T04:49:33.944Z,1014.32
2019-05-22T04:50:33.984Z,1014.28
2019-05-22T04:51:33.936Z,1014.29
2019-05-22T04:52:33.923Z,1014.28
2019-05-22T04:53:33.916Z,1014.29
2019-05-22T04:54:33.906Z,1014.32
2019-05-22T04:55:33.903Z,1014.32
2019-05-22T04:56:33.898Z,1014.35
2019-05-22T04:57:33.893Z,1014.34
2019-05-22T04:58:33.891Z,1014.33
2019-05-22T04:59:33.881Z,1014.34
2019-05-22T05:00:33.873Z,1014.37
2019-05-22T05:01:33.869Z,1014.31
2019-05-22T05:02:33.867Z,1014.32
2019-05-22T05:03:33.856Z,1014.32
2019-05-22T05:04:33.845Z,1014.35
2019-05-22T05:05:33.842Z,1014.29
2019-05-22T05:06:33.841Z,1014.33
2019-05-22T05:07:33.821Z,1014.30
2019-05-22T05:08:33.823Z,1014.31
2019-05-22T05:09:33.815Z,1014.32
2019-05-22T05:10:33.812Z,1014.34
2019-05-22T05:11:33.802Z,1014.35
2019-05-22T05:12:33.793Z,1014.32
2019-05-22T05:13:33.835Z,1014.38
2019-05-22T05:14:33.780Z,1014.40
2019-05-22T05:15:36.774Z,1014.43
2019-05-22T05:16:33.773Z,1014.42
2019-05-22T05:17:33.767Z,1014.42
2019-05-22T05:18:33.757Z,1014.44
2019-05-22T05:19:33.751Z,1014.44
2019-05-22T05:20:33.750Z,1014.40
2019-05-22T05:21:33.740Z,1014.44
2019-05-22T05:22:33.735Z,1014.47
2019-05-22T05:23:33.725Z,1014.44
2019-05-22T05:24:33.714Z,1014.41
2019-05-22T05:25:33.709Z,1014.44
2019-05-22T05:26:33.703Z,1014.45
2019-05-22T05:27:33.695Z,1014.45
2019-05-22T05:28:33.744Z,1014.46
2019-05-22T05:29:33.688Z,1014.50
2019-05-22T05:30:33.686Z,1014.50
2019-05-22T05:31:33.676Z,1014.49
2019-05-22T05:32:33.672Z,1014.50
2019-05-22T05:33:33.662Z,1014.47
2019-05-22T05:34:33.659Z,1014.48
2019-05-22T05:35:33.654Z,1014.47
2019-05-22T05:36:33.645Z,1014.53
2019-05-22T05:37:33.636Z,1014.51
2019-05-22T05:38:33.626Z,1014.57
2019-05-22T05:39:33.620Z,1014.54
2019-05-22T05:40:33.635Z,1014.60
2019-05-22T05:41:33.614Z,1014.55
2019-05-22T05:42:33.607Z,1014.58
2019-05-22T05:43:33.601Z,1014.58
2019-05-22T05:44:33.589Z,1014.63
2019-05-22T05:45:33.585Z,1014.67
2019-05-22T05:46:33.579Z,1014.64
2019-05-22T05:47:33.575Z,1014.66
2019-05-22T05:48:33.571Z,1014.64
2019-05-22T05:49:33.565Z,1014.69
2019-05-22T05:50:39.562Z,1014.62
2019-05-22T05:51:33.550Z,1014.64
2019-05-22T05:52:33.546Z,1014.66
2019-05-22T05:53:33.541Z,1014.67
2019-05-22T05:54:33.533Z,1014.66
2019-05-22T05:55:33.527Z,1014.64
2019-05-22T05:56:33.517Z,1014.63
2019-05-22T05:57:33.509Z,1014.70
2019-05-22T05:58:33.506Z,1014.64
2019-05-22T05:59:33.499Z,1014.70
2019-05-22T06:00:33.496Z,1014.68
2019-05-22T06:01:33.496Z,1014.68
2019-05-22T06:02:33.483Z,1014.66
2019-05-22T06:03:33.475Z,1014.75
2019-05-22T06:04:35.121Z,1014.71
2019-05-22T06:05:33.460Z,1014.71
2019-05-22T06:06:33.461Z,1014.74
2019-05-22T06:07:33.449Z,1014.75
2019-05-22T06:08:33.441Z,1014.78
2019-05-22T06:09:33.434Z,1014.78
2019-05-22T06:10:33.433Z,1014.80
2019-05-22T06:11:33.432Z,1014.84
2019-05-22T06:12:33.424Z,1014.87
2019-05-22T06:13:33.421Z,1014.90
2019-05-22T06:14:33.412Z,1014.87
2019-05-22T06:15:45.915Z,1014.86
2019-05-22T06:16:33.396Z,1014.93
2019-05-22T06:17:33.389Z,1014.93
2019-05-22T06:18:33.382Z,1015.00
2019-05-22T06:19:33.372Z,1014.93
2019-05-22T06:20:33.374Z,1014.99
2019-05-22T06:21:33.370Z,1014.97
2019-05-22T06:22:33.356Z,1014.95
2019-05-22T06:23:33.350Z,1014.97
2019-05-22T06:24:33.347Z,1014.99
2019-05-22T06:25:33.347Z,1014.97
2019-05-22T06:26:33.340Z,1015.04
2019-05-22T06:27:33.334Z,1015.04
2019-05-22T06:28:33.323Z,1015.00
2019-05-22T06:29:33.316Z,1015.04
2019-05-22T06:30:33.310Z,1015.07
2019-05-22T06:31:33.311Z,1015.07
2019-05-22T06:32:33.302Z,1015.08
2019-05-22T06:33:33.295Z,1015.02
2019-05-22T06:34:33.289Z,1015.07
2019-05-22T06:35:33.354Z,1015.10
2019-05-22T06:36:33.271Z,1015.08
2019-05-22T06:37:33.265Z,1015.08
2019-05-22T06:38:33.277Z,1015.08
2019-05-22T06:39:33.257Z,1015.02
2019-05-22T06:40:33.246Z,1015.08
2019-05-22T06:41:33.276Z,1015.06
2019-05-22T06:42:33.238Z,1015.05
2019-05-22T06:43:33.234Z,1015.07
2019-05-22T06:44:33.239Z,1015.02
2019-05-22T06:45:35.601Z,1015.02
2019-05-22T06:46:33.220Z,1015.03
2019-05-22T06:47:33.211Z,1015.05
2019-05-22T06:48:33.290Z,1015.00
2019-05-22T06:49:33.219Z,1015.05
2019-05-22T06:50:33.188Z,1015.02
2019-05-22T06:51:33.182Z,1015.04
2019-05-22T06:52:33.180Z,1015.08
2019-05-22T06:53:33.174Z,1015.10
2019-05-22T06:54:33.165Z,1015.07
2019-05-22T06:55:33.158Z,1015.08
2019-05-22T06:56:33.157Z,1015.09
2019-05-22T06:57:33.153Z,1015.13
2019-05-22T06:58:33.147Z,1015.05
2019-05-22T06:59:33.142Z,1015.11
2019-05-22T07:00:33.131Z,1015.12
2019-05-22T07:01:33.127Z,1015.16
2019-05-22T07:02:33.119Z,1015.13
2019-05-22T07:03:33.111Z,1015.14
2019-05-22T07:04:33.111Z,1015.16
2019-05-22T07:05:33.104Z,1015.16
2019-05-22T07:06:33.110Z,1015.18
2019-05-22T07:07:33.094Z,1015.20
2019-05-22T07:08:33.087Z,1015.19
2019-05-22T07:09:33.083Z,1015.22
2019-05-22T07:10:33.080Z,1015.24
2019-05-22T07:11:33.073Z,1015.26
2019-05-22T07:12:33.066Z,1015.24
2019-05-22T07:13:33.059Z,1015.26
2019-05-22T07:14:33.053Z,1015.26
2019-05-22T07:15:33.048Z,1015.22
2019-05-22T07:16:33.043Z,1015.26
2019-05-22T07:17:33.039Z,1015.26
2019-05-22T07:18:33.042Z,1015.28
2019-05-22T07:19:33.031Z,1015.36
2019-05-22T07:20:33.028Z,1015.31
2019-05-22T07:21:34.137Z,1015.29
2019-05-22T07:22:33.011Z,1015.28
2019-05-22T07:23:33.016Z,1015.28
2019-05-22T07:24:33.005Z,1015.31
2019-05-22T07:25:33.091Z,1015.32
2019-05-22T07:26:32.991Z,1015.33
2019-05-22T07:27:32.985Z,1015.30
2019-05-22T07:28:32.983Z,1015.33
2019-05-22T07:29:32.981Z,1015.32
2019-05-22T07:30:32.973Z,1015.34
2019-05-22T07:31:32.966Z,1015.32
2019-05-22T07:32:32.959Z,1015.35
2019-05-22T07:33:32.951Z,1015.36
2019-05-22T07:34:33.004Z,1015.37
2019-05-22T07:35:46.008Z,1015.38
2019-05-22T07:36:32.941Z,1015.39
2019-05-22T07:37:32.938Z,1015.41
2019-05-22T07:38:32.936Z,1015.38
2019-05-22T07:39:32.932Z,1015.40
2019-05-22T07:40:32.935Z,1015.39
2019-05-22T07:41:32.918Z,1015.38
2019-05-22T07:42:32.918Z,1015.40
2019-05-22T07:43:32.909Z,1015.43
2019-05-22T07:44:32.897Z,1015.39
2019-05-22T07:45:32.895Z,1015.39
2019-05-22T07:46:32.888Z,1015.39
2019-05-22T07:47:32.886Z,1015.42
2019-05-22T07:48:32.885Z,1015.43
2019-05-22T07:49:32.887Z,1015.44
2019-05-22T07:50:32.878Z,1015.44
2019-05-22T07:51:32.867Z,1015.48
2019-05-22T07:52:32.863Z,1015.45
2019-05-22T07:53:32.854Z,1015.40
2019-05-22T07:54:32.853Z,1015.38
2019-05-22T07:55:32.851Z,1015.45
2019-05-22T07:56:32.845Z,1015.45
2019-05-22T07:57:32.840Z,1015.44
2019-05-22T07:58:32.842Z,1015.45
2019-05-22T07:59:32.824Z,1015.44
2019-05-22T08:00:32.827Z,1015.46
2019-05-22T08:01:32.823Z,1015.45
2019-05-22T08:02:32.813Z,1015.52
2019-05-22T08:03:32.809Z,1015.54
2019-05-22T08:04:32.799Z,1015.52
2019-05-22T08:05:32.797Z,1015.53
2019-05-22T08:06:32.792Z,1015.50
2019-05-22T08:07:32.787Z,1015.55
2019-05-22T08:08:32.787Z,1015.46
2019-05-22T08:09:32.783Z,1015.52
2019-05-22T08:10:32.779Z,1015.52
2019-05-22T08:11:32.775Z,1015.53
2019-05-22T08:12:32.766Z,1015.56
2019-05-22T08:13:32.764Z,1015.52
2019-05-22T08:14:32.762Z,1015.51
2019-05-22T08:15:32.756Z,1015.58
2019-05-22T08:16:32.750Z,1015.60
2019-05-22T08:17:32.746Z,1015.58
2019-05-22T08:18:32.739Z,1015.64
2019-05-22T08:19:32.736Z,1015.65
2019-05-22T08:20:32.735Z,1015.63
2019-05-22T08:21:32.732Z,1015.59
2019-05-22T08:22:32.728Z,1015.68
2019-05-22T08:23:32.727Z,1015.58
2019-05-22T08:24:32.717Z,1015.64
2019-05-22T08:25:32.718Z,1015.74
2019-05-22T08:26:32.714Z,1015.74
2019-05-22T08:27:32.709Z,1015.72
2019-05-22T08:28:32.711Z,1015.71
2019-05-22T08:29:32.708Z,1015.66
2019-05-22T08:30:32.702Z,1015.69
2019-05-22T08:31:32.698Z,1015.71
2019-05-22T08:32:32.699Z,1015.74
2019-05-22T08:33:32.698Z,1015.73
2019-05-22T08:34:32.692Z,1015.81
2019-05-22T08:35:32.692Z,1015.74
2019-05-22T08:36:32.683Z,1015.78
2019-05-22T08:37:32.679Z,1015.89
2019-05-22T08:38:32.681Z,1016.03
2019-05-22T08:39:32.674Z,1016.15
2019-05-22T08:40:32.698Z,1016.08
2019-05-22T08:41:32.720Z,1015.97
2019-05-22T08:42:35.414Z,1015.95
2019-05-22T08:43:49.549Z,1016.04
2019-05-22T08:44:32.670Z,1016.13
2019-05-22T08:45:32.670Z,1016.01
2019-05-22T08:46:32.675Z,1015.92
2019-05-22T08:47:32.673Z,1015.93
2019-05-22T08:48:32.672Z,1015.86
2019-05-22T08:49:32.668Z,1015.86
2019-05-22T08:50:32.666Z,1015.87
2019-05-22T08:51:32.663Z,1015.85
2019-05-22T08:52:32.681Z,1015.84
2019-05-22T08:53:46.145Z,1015.83
2019-05-22T08:54:32.666Z,1015.92
2019-05-22T08:55:32.664Z,1015.92
2019-05-22T08:56:32.662Z,1016.02
2019-05-22T08:57:32.658Z,1016.11
2019-05-22T08:58:32.664Z,1016.00
2019-05-22T08:59:32.660Z,1015.89
2019-05-22T09:00:32.664Z,1015.94
2019-05-22T09:01:32.669Z,1015.97
2019-05-22T09:02:32.661Z,1015.91
2019-05-22T09:03:32.659Z,1015.90
2019-05-22T09:04:32.664Z,1015.90
2019-05-22T09:05:32.664Z,1015.92
2019-05-22T09:06:32.673Z,1015.96
2019-05-22T09:07:32.661Z,1015.99
2019-05-22T09:08:32.721Z,1016.08
2019-05-22T09:09:32.657Z,1016.09
2019-05-22T09:10:32.667Z,1016.00
2019-05-22T09:11:32.658Z,1016.00
2019-05-22T09:12:32.663Z,1016.12
2019-05-22T09:13:32.667Z,1016.17
2019-05-22T09:14:32.661Z,1016.30
2019-05-22T09:15:32.660Z,1016.50
2019-05-22T09:16:32.660Z,1016.92
2019-05-22T09:17:32.660Z,1016.55
2019-05-22T09:18:32.663Z,1016.50
2019-05-22T09:19:32.666Z,1016.52
2019-05-22T09:20:48.259Z,1016.43
2019-05-22T09:21:32.663Z,1016.83
2019-05-22T09:22:40.798Z,1017.30
2019-05-22T09:23:32.674Z,1017.18
2019-05-22T09:24:32.732Z,1017.17
2019-05-22T09:25:32.689Z,1016.68
2019-05-22T09:26:32.703Z,1016.47
2019-05-22T09:27:32.690Z,1016.47
2019-05-22T09:28:32.694Z,1016.32
2019-05-22T09:29:32.740Z,1016.33
2019-05-22T09:30:32.703Z,1017.39
2019-05-22T09:31:32.704Z,1017.29
2019-05-22T09:32:32.716Z,1017.35
2019-05-22T09:33:32.722Z,1017.41
2019-05-22T09:34:32.726Z,1017.38
2019-05-22T09:35:32.731Z,1017.36
2019-05-22T09:36:33.564Z,1016.40
2019-05-22T09:37:32.756Z,1017.33
2019-05-22T09:38:32.759Z,1016.63
2019-05-22T09:39:32.765Z,1016.33
2019-05-22T09:40:32.774Z,1016.28
2019-05-22T09:41:32.779Z,1016.38
2019-05-22T09:42:32.788Z,1016.86
2019-05-22T09:43:32.802Z,1016.33
2019-05-22T09:44:32.811Z,1016.28
2019-05-22T09:45:32.847Z,1016.28
2019-05-22T09:46:32.827Z,1016.28
2019-05-22T09:47:32.836Z,1016.33
2019-05-22T09:48:32.839Z,1016.41
2019-05-22T09:49:32.848Z,1016.48
2019-05-22T09:50:32.860Z,1016.59
2019-05-22T09:51:32.869Z,1016.56
2019-05-22T09:52:32.871Z,1017.00
2019-05-22T09:53:32.880Z,1016.96
2019-05-22T09:54:32.889Z,1016.66
2019-05-22T09:55:32.898Z,1016.86
2019-05-22T09:56:32.906Z,1016.88
2019-05-22T09:57:32.915Z,1016.87
2019-05-22T09:58:32.923Z,1016.87
2019-05-22T09:59:32.930Z,1016.84
2019-05-22T10:00:32.938Z,1016.88
2019-05-22T10:01:32.945Z,1016.90
2019-05-22T10:02:32.953Z,1016.91
2019-05-22T10:03:32.964Z,1016.67
2019-05-22T10:04:32.978Z,1016.62
2019-05-22T10:05:33.048Z,1016.81
2019-05-22T10:06:32.995Z,1016.79
2019-05-22T10:07:33.007Z,1016.79
2019-05-22T10:08:33.025Z,1016.62
2019-05-22T10:09:33.035Z,1016.69
2019-05-22T10:10:33.052Z,1016.83
2019-05-22T10:11:33.061Z,1016.70
2019-05-22T10:12:33.068Z,1016.60
2019-05-22T10:13:33.275Z,1016.66
2019-05-22T10:14:33.091Z,1016.75
2019-05-22T10:15:33.105Z,1016.91
2019-05-22T10:16:33.118Z,1016.78
2019-05-22T10:17:33.137Z,1016.54
2019-05-22T10:18:33.148Z,1016.55
2019-05-22T10:19:33.158Z,1016.59
2019-05-22T10:20:33.169Z,1016.75
2019-05-22T10:21:33.178Z,1016.86
2019-05-22T10:22:33.196Z,1016.91
2019-05-22T10:23:33.207Z,1016.77
2019-05-22T10:24:33.218Z,1016.74
2019-05-22T10:25:33.231Z,1016.74
2019-05-22T10:26:33.242Z,1016.70
2019-05-22T10:27:33.255Z,1016.74
2019-05-22T10:28:33.276Z,1016.73
2019-05-22T10:29:33.289Z,1016.82
2019-05-22T10:30:33.300Z,1016.86
2019-05-22T10:31:33.306Z,1016.78
2019-05-22T10:32:33.316Z,1016.71
2019-05-22T10:33:33.331Z,1016.70
2019-05-22T10:34:33.346Z,1016.70
2019-05-22T10:35:33.362Z,1016.73
2019-05-22T10:36:33.377Z,1016.70
2019-05-22T10:37:33.391Z,1016.59
2019-05-22T10:38:33.402Z,1016.66
2019-05-22T10:39:33.414Z,1016.60
2019-05-22T10:40:33.433Z,1016.59
2019-05-22T10:41:33.519Z,1016.70
2019-05-22T10:42:33.461Z,1016.49
2019-05-22T10:43:33.471Z,1016.69
2019-05-22T10:44:33.481Z,1016.34
2019-05-22T10:45:33.496Z,1016.29
2019-05-22T10:46:33.507Z,1016.34
2019-05-22T10:47:33.521Z,1016.35
2019-05-22T10:48:33.539Z,1016.34
2019-05-22T10:49:33.550Z,1016.37
2019-05-22T10:50:33.578Z,1016.59
2019-05-22T10:51:33.579Z,1016.31
2019-05-22T10:52:33.585Z,1016.31
2019-05-22T10:53:34.510Z,1016.23
2019-05-22T10:54:33.609Z,1016.49
2019-05-22T10:55:33.621Z,1016.47
2019-05-22T10:56:33.628Z,1016.18
2019-05-22T10:57:33.640Z,1016.18
2019-05-22T10:58:33.647Z,1016.40
2019-05-22T10:59:33.656Z,1016.34
2019-05-22T11:00:33.671Z,1016.24
2019-05-22T11:01:37.277Z,1016.25
2019-05-22T11:02:33.693Z,1016.43
2019-05-22T11:03:33.704Z,1016.18
2019-05-22T11:04:33.705Z,1016.08
2019-05-22T11:05:33.720Z,1016.07
2019-05-22T11:06:33.787Z,1016.10
2019-05-22T11:07:33.736Z,1016.16
2019-05-22T11:08:34.566Z,1016.16
2019-05-22T11:09:33.758Z,1016.17
2019-05-22T11:10:33.764Z,1016.37
2019-05-22T11:11:33.772Z,1016.26
2019-05-22T11:12:33.784Z,1016.20
2019-05-22T11:13:34.506Z,1016.34
2019-05-22T11:14:33.799Z,1016.24
2019-05-22T11:15:33.805Z,1016.25
2019-05-22T11:16:33.840Z,1016.30
2019-05-22T11:17:33.825Z,1016.24
2019-05-22T11:18:33.829Z,1016.25
2019-05-22T11:19:33.835Z,1016.25
2019-05-22T11:20:33.847Z,1016.19
2019-05-22T11:21:33.855Z,1016.19
2019-05-22T11:22:35.033Z,1016.22
2019-05-22T11:23:50.627Z,1016.16
2019-05-22T11:24:33.936Z,1016.10
2019-05-22T11:25:33.878Z,1016.12
2019-05-22T11:26:33.886Z,1016.20
2019-05-22T11:27:33.893Z,1016.16
2019-05-22T11:28:33.987Z,1016.13
2019-05-22T11:29:33.901Z,1016.14
2019-05-22T11:30:33.911Z,1016.17
2019-05-22T11:31:33.915Z,1016.20
2019-05-22T11:32:33.938Z,1016.20
2019-05-22T11:33:34.539Z,1016.14
2019-05-22T11:34:33.955Z,1016.12
2019-05-22T11:35:33.941Z,1016.12
2019-05-22T11:36:33.943Z,1016.10
2019-05-22T11:37:33.948Z,1016.10
2019-05-22T11:38:33.952Z,1016.08
2019-05-22T11:39:39.222Z,1016.03
2019-05-22T11:40:33.965Z,1016.02
2019-05-22T11:41:33.971Z,1016.10
2019-05-22T11:42:33.973Z,1016.04
2019-05-22T11:43:33.974Z,1016.04
2019-05-22T11:44:33.987Z,1015.99
2019-05-22T11:45:33.991Z,1015.98
2019-05-22T11:46:33.996Z,1015.98
2019-05-22T11:47:34.002Z,1015.95
2019-05-22T11:48:34.003Z,1015.95
2019-05-22T11:49:34.008Z,1015.93
2019-05-22T11:50:34.012Z,1015.86
2019-05-22T11:51:34.015Z,1015.87
2019-05-22T11:52:34.027Z,1015.88
2019-05-22T11:53:34.031Z,1015.87
2019-05-22T11:54:34.032Z,1015.85
2019-05-22T11:55:45.410Z,1015.82
2019-05-22T11:56:34.034Z,1015.79
2019-05-22T11:57:34.042Z,1015.76
2019-05-22T11:58:34.057Z,1015.76
2019-05-22T11:59:34.056Z,1015.77
2019-05-22T12:00:34.051Z,1015.76
2019-05-22T12:01:34.054Z,1015.74
2019-05-22T12:02:34.062Z,1015.73
2019-05-22T12:03:34.070Z,1015.70
2019-05-22T12:04:47.261Z,1015.69
2019-05-22T12:05:34.077Z,1015.70